sensor_id;sensor_type;location;lat;lon;timestamp;temperature;humidity
4406;DHT22;2216;53.806;11.598;2024-02-26T00:01:27;3.00;89.90
4406;DHT22;2216;53.806;11.598;2024-02-26T00:03:53;2.90;89.90
4406;DHT22;2216;53.806;11.598;2024-02-26T00:06:20;2.90;89.90
4406;DHT22;2216;53.806;11.598;2024-02-26T00:08:46;2.90;89.90
4406;DHT22;2216;53.806;11.598;2024-02-26T00:11:12;2.80;89.80
4406;DHT22;2216;53.806;11.598;2024-02-26T00:13:38;2.80;89.80
4406;DHT22;2216;53.806;11.598;2024-02-26T00:16:04;2.70;89.70
4406;DHT22;2216;53.806;11.598;2024-02-26T00:18:30;2.70;89.70
4406;DHT22;2216;53.806;11.598;2024-02-26T00:20:55;2.70;89.80
4406;DHT22;2216;53.806;11.598;2024-02-26T00:23:21;2.60;89.80
4406;DHT22;2216;53.806;11.598;2024-02-26T00:25:48;2.60;89.80
4406;DHT22;2216;53.806;11.598;2024-02-26T00:28:14;2.50;89.70
4406;DHT22;2216;53.806;11.598;2024-02-26T00:30:39;2.50;89.70
4406;DHT22;2216;53.806;11.598;2024-02-26T00:33:05;2.50;89.80
4406;DHT22;2216;53.806;11.598;2024-02-26T00:35:31;2.40;89.70
4406;DHT22;2216;53.806;11.598;2024-02-26T00:37:57;2.40;89.70
4406;DHT22;2216;53.806;11.598;2024-02-26T00:40:24;2.40;89.70
4406;DHT22;2216;53.806;11.598;2024-02-26T00:42:49;2.40;89.80
4406;DHT22;2216;53.806;11.598;2024-02-26T00:45:15;2.30;89.70
4406;DHT22;2216;53.806;11.598;2024-02-26T00:47:42;2.30;89.70
4406;DHT22;2216;53.806;11.598;2024-02-26T00:50:09;2.30;89.70
4406;DHT22;2216;53.806;11.598;2024-02-26T00:52:35;2.20;89.70
4406;DHT22;2216;53.806;11.598;2024-02-26T00:55:02;2.20;89.70
4406;DHT22;2216;53.806;11.598;2024-02-26T00:57:28;2.10;89.70
4406;DHT22;2216;53.806;11.598;2024-02-26T00:59:54;2.10;89.70
4406;DHT22;2216;53.806;11.598;2024-02-26T01:02:22;2.10;89.80
4406;DHT22;2216;53.806;11.598;2024-02-26T01:04:48;2.10;89.80
4406;DHT22;2216;53.806;11.598;2024-02-26T01:07:13;2.00;89.80
4406;DHT22;2216;53.806;11.598;2024-02-26T01:09:39;2.00;89.80
4406;DHT22;2216;53.806;11.598;2024-02-26T01:12:05;2.00;89.90
4406;DHT22;2216;53.806;11.598;2024-02-26T01:14:31;2.00;89.90
4406;DHT22;2216;53.806;11.598;2024-02-26T01:16:57;2.00;89.90
4406;DHT22;2216;53.806;11.598;2024-02-26T01:19:22;1.90;89.80
4406;DHT22;2216;53.806;11.598;2024-02-26T01:21:48;1.90;89.80
4406;DHT22;2216;53.806;11.598;2024-02-26T01:24:14;1.90;89.80
4406;DHT22;2216;53.806;11.598;2024-02-26T01:26:41;1.90;89.90
4406;DHT22;2216;53.806;11.598;2024-02-26T01:29:06;1.80;89.90
4406;DHT22;2216;53.806;11.598;2024-02-26T01:31:32;1.80;89.90
4406;DHT22;2216;53.806;11.598;2024-02-26T01:33:58;1.80;89.90
4406;DHT22;2216;53.806;11.598;2024-02-26T01:36:24;1.80;89.90
4406;DHT22;2216;53.806;11.598;2024-02-26T01:38:50;1.80;89.90
4406;DHT22;2216;53.806;11.598;2024-02-26T01:41:16;1.80;89.90
4406;DHT22;2216;53.806;11.598;2024-02-26T01:43:42;1.70;90.00
4406;DHT22;2216;53.806;11.598;2024-02-26T01:46:13;1.70;89.90
4406;DHT22;2216;53.806;11.598;2024-02-26T01:48:43;1.70;89.90
4406;DHT22;2216;53.806;11.598;2024-02-26T01:51:10;1.70;89.90
4406;DHT22;2216;53.806;11.598;2024-02-26T01:53:38;1.70;89.80
4406;DHT22;2216;53.806;11.598;2024-02-26T01:56:04;1.60;89.80
4406;DHT22;2216;53.806;11.598;2024-02-26T01:58:30;1.60;89.80
4406;DHT22;2216;53.806;11.598;2024-02-26T02:00:57;1.50;89.70
4406;DHT22;2216;53.806;11.598;2024-02-26T02:03:23;1.50;89.60
4406;DHT22;2216;53.806;11.598;2024-02-26T02:05:49;1.50;89.70
4406;DHT22;2216;53.806;11.598;2024-02-26T02:08:15;1.50;89.70
4406;DHT22;2216;53.806;11.598;2024-02-26T02:10:42;1.40;89.70
4406;DHT22;2216;53.806;11.598;2024-02-26T02:13:08;1.40;89.70
4406;DHT22;2216;53.806;11.598;2024-02-26T02:15:34;1.40;89.80
4406;DHT22;2216;53.806;11.598;2024-02-26T02:18:00;1.40;89.80
4406;DHT22;2216;53.806;11.598;2024-02-26T02:20:35;1.50;89.90
4406;DHT22;2216;53.806;11.598;2024-02-26T02:23:02;1.30;89.80
4406;DHT22;2216;53.806;11.598;2024-02-26T02:25:28;1.30;89.80
4406;DHT22;2216;53.806;11.598;2024-02-26T02:27:55;1.30;89.80
4406;DHT22;2216;53.806;11.598;2024-02-26T02:30:23;1.30;89.90
4406;DHT22;2216;53.806;11.598;2024-02-26T02:32:51;1.30;89.90
4406;DHT22;2216;53.806;11.598;2024-02-26T02:35:17;1.20;89.90
4406;DHT22;2216;53.806;11.598;2024-02-26T02:37:42;1.20;89.90
4406;DHT22;2216;53.806;11.598;2024-02-26T02:40:08;1.20;90.00
4406;DHT22;2216;53.806;11.598;2024-02-26T02:42:34;1.30;90.00
4406;DHT22;2216;53.806;11.598;2024-02-26T02:45:00;1.20;90.00
4406;DHT22;2216;53.806;11.598;2024-02-26T02:47:26;1.20;90.00
4406;DHT22;2216;53.806;11.598;2024-02-26T02:49:51;1.30;90.00
4406;DHT22;2216;53.806;11.598;2024-02-26T02:52:17;1.20;89.90
4406;DHT22;2216;53.806;11.598;2024-02-26T02:54:43;1.20;89.90
4406;DHT22;2216;53.806;11.598;2024-02-26T02:57:09;1.20;89.90
4406;DHT22;2216;53.806;11.598;2024-02-26T02:59:35;1.10;89.80
4406;DHT22;2216;53.806;11.598;2024-02-26T03:02:03;1.10;89.80
4406;DHT22;2216;53.806;11.598;2024-02-26T03:04:29;1.10;89.80
4406;DHT22;2216;53.806;11.598;2024-02-26T03:06:55;1.10;89.80
4406;DHT22;2216;53.806;11.598;2024-02-26T03:09:21;1.00;89.70
4406;DHT22;2216;53.806;11.598;2024-02-26T03:11:46;1.00;89.70
4406;DHT22;2216;53.806;11.598;2024-02-26T03:14:12;1.00;89.80
4406;DHT22;2216;53.806;11.598;2024-02-26T03:16:38;1.00;89.80
4406;DHT22;2216;53.806;11.598;2024-02-26T03:19:03;1.00;89.80
4406;DHT22;2216;53.806;11.598;2024-02-26T03:21:29;1.00;89.80
4406;DHT22;2216;53.806;11.598;2024-02-26T03:23:55;1.00;89.80
4406;DHT22;2216;53.806;11.598;2024-02-26T03:26:21;0.90;89.80
4406;DHT22;2216;53.806;11.598;2024-02-26T03:28:47;1.00;89.80
4406;DHT22;2216;53.806;11.598;2024-02-26T03:31:13;0.80;89.70
4406;DHT22;2216;53.806;11.598;2024-02-26T03:33:39;0.90;89.70
4406;DHT22;2216;53.806;11.598;2024-02-26T03:36:05;0.80;89.70
4406;DHT22;2216;53.806;11.598;2024-02-26T03:38:33;0.80;89.70
4406;DHT22;2216;53.806;11.598;2024-02-26T03:40:58;0.80;89.70
4406;DHT22;2216;53.806;11.598;2024-02-26T03:43:24;0.80;89.70
4406;DHT22;2216;53.806;11.598;2024-02-26T03:45:50;0.70;89.60
4406;DHT22;2216;53.806;11.598;2024-02-26T03:48:16;0.70;90.10
4406;DHT22;2216;53.806;11.598;2024-02-26T03:50:42;0.70;89.60
4406;DHT22;2216;53.806;11.598;2024-02-26T03:53:07;0.80;89.80
4406;DHT22;2216;53.806;11.598;2024-02-26T03:55:34;0.60;89.80
4406;DHT22;2216;53.806;11.598;2024-02-26T03:58:00;0.60;89.80
4406;DHT22;2216;53.806;11.598;2024-02-26T04:00:26;0.60;89.80
4406;DHT22;2216;53.806;11.598;2024-02-26T04:02:54;0.70;89.90
4406;DHT22;2216;53.806;11.598;2024-02-26T04:05:20;0.60;89.90
4406;DHT22;2216;53.806;11.598;2024-02-26T04:07:45;0.60;89.90
4406;DHT22;2216;53.806;11.598;2024-02-26T04:10:12;0.50;89.90
4406;DHT22;2216;53.806;11.598;2024-02-26T04:12:39;0.50;89.90
4406;DHT22;2216;53.806;11.598;2024-02-26T04:15:09;0.50;89.90
4406;DHT22;2216;53.806;11.598;2024-02-26T04:17:36;0.50;89.90
4406;DHT22;2216;53.806;11.598;2024-02-26T04:20:03;0.50;89.90
4406;DHT22;2216;53.806;11.598;2024-02-26T04:22:31;0.50;89.90
4406;DHT22;2216;53.806;11.598;2024-02-26T04:24:57;0.50;89.90
4406;DHT22;2216;53.806;11.598;2024-02-26T04:27:23;0.50;90.00
4406;DHT22;2216;53.806;11.598;2024-02-26T04:29:49;0.40;89.90
4406;DHT22;2216;53.806;11.598;2024-02-26T04:32:14;0.40;89.90
4406;DHT22;2216;53.806;11.598;2024-02-26T04:34:40;0.40;90.00
4406;DHT22;2216;53.806;11.598;2024-02-26T04:37:07;0.40;90.00
4406;DHT22;2216;53.806;11.598;2024-02-26T04:39:33;0.50;90.00
4406;DHT22;2216;53.806;11.598;2024-02-26T04:41:58;0.40;90.00
4406;DHT22;2216;53.806;11.598;2024-02-26T04:44:24;0.40;90.00
4406;DHT22;2216;53.806;11.598;2024-02-26T04:46:50;0.30;90.00
4406;DHT22;2216;53.806;11.598;2024-02-26T04:49:16;0.40;90.00
4406;DHT22;2216;53.806;11.598;2024-02-26T04:51:42;0.30;90.00
4406;DHT22;2216;53.806;11.598;2024-02-26T04:54:07;0.30;90.00
4406;DHT22;2216;53.806;11.598;2024-02-26T04:56:33;0.50;90.10
4406;DHT22;2216;53.806;11.598;2024-02-26T04:58:59;0.40;90.00
4406;DHT22;2216;53.806;11.598;2024-02-26T05:01:25;0.30;90.00
4406;DHT22;2216;53.806;11.598;2024-02-26T05:03:51;0.30;90.00
4406;DHT22;2216;53.806;11.598;2024-02-26T05:06:17;0.30;90.00
4406;DHT22;2216;53.806;11.598;2024-02-26T05:08:42;0.30;90.00
4406;DHT22;2216;53.806;11.598;2024-02-26T05:11:09;0.40;90.00
4406;DHT22;2216;53.806;11.598;2024-02-26T05:13:35;0.30;90.00
4406;DHT22;2216;53.806;11.598;2024-02-26T05:16:00;0.30;90.00
4406;DHT22;2216;53.806;11.598;2024-02-26T05:18:27;0.30;90.00
4406;DHT22;2216;53.806;11.598;2024-02-26T05:20:52;0.30;90.00
4406;DHT22;2216;53.806;11.598;2024-02-26T05:23:18;0.30;90.00
4406;DHT22;2216;53.806;11.598;2024-02-26T05:25:44;0.30;90.00
4406;DHT22;2216;53.806;11.598;2024-02-26T05:28:12;0.30;90.00
4406;DHT22;2216;53.806;11.598;2024-02-26T05:30:38;0.30;90.10
4406;DHT22;2216;53.806;11.598;2024-02-26T05:33:05;0.30;90.10
4406;DHT22;2216;53.806;11.598;2024-02-26T05:35:31;0.30;90.00
4406;DHT22;2216;53.806;11.598;2024-02-26T05:37:57;0.30;90.00
4406;DHT22;2216;53.806;11.598;2024-02-26T05:40:22;0.40;90.10
4406;DHT22;2216;53.806;11.598;2024-02-26T05:42:48;0.30;90.00
4406;DHT22;2216;53.806;11.598;2024-02-26T05:45:14;0.30;90.00
4406;DHT22;2216;53.806;11.598;2024-02-26T05:47:40;0.30;90.00
4406;DHT22;2216;53.806;11.598;2024-02-26T05:50:09;0.20;90.00
4406;DHT22;2216;53.806;11.598;2024-02-26T05:52:37;0.20;90.00
4406;DHT22;2216;53.806;11.598;2024-02-26T05:55:06;0.20;90.00
4406;DHT22;2216;53.806;11.598;2024-02-26T05:57:33;0.20;90.00
4406;DHT22;2216;53.806;11.598;2024-02-26T05:59:59;0.20;90.00
4406;DHT22;2216;53.806;11.598;2024-02-26T06:02:37;0.20;90.00
4406;DHT22;2216;53.806;11.598;2024-02-26T06:05:02;0.20;90.00
4406;DHT22;2216;53.806;11.598;2024-02-26T06:07:28;0.20;90.00
4406;DHT22;2216;53.806;11.598;2024-02-26T06:09:54;0.20;90.10
4406;DHT22;2216;53.806;11.598;2024-02-26T06:12:20;0.20;90.00
4406;DHT22;2216;53.806;11.598;2024-02-26T06:14:46;0.30;90.00
4406;DHT22;2216;53.806;11.598;2024-02-26T06:17:12;0.30;90.10
4406;DHT22;2216;53.806;11.598;2024-02-26T06:19:38;0.20;90.00
4406;DHT22;2216;53.806;11.598;2024-02-26T06:22:04;0.30;90.10
4406;DHT22;2216;53.806;11.598;2024-02-26T06:24:29;0.20;90.10
4406;DHT22;2216;53.806;11.598;2024-02-26T06:26:55;0.20;90.00
4406;DHT22;2216;53.806;11.598;2024-02-26T06:29:21;0.20;90.10
4406;DHT22;2216;53.806;11.598;2024-02-26T06:31:47;0.20;90.10
4406;DHT22;2216;53.806;11.598;2024-02-26T06:34:13;0.20;90.10
4406;DHT22;2216;53.806;11.598;2024-02-26T06:36:39;0.20;90.20
4406;DHT22;2216;53.806;11.598;2024-02-26T06:39:05;0.40;90.20
4406;DHT22;2216;53.806;11.598;2024-02-26T06:41:31;0.40;90.20
4406;DHT22;2216;53.806;11.598;2024-02-26T06:43:57;0.40;90.20
4406;DHT22;2216;53.806;11.598;2024-02-26T06:46:23;0.30;90.20
4406;DHT22;2216;53.806;11.598;2024-02-26T06:48:49;0.40;90.30
4406;DHT22;2216;53.806;11.598;2024-02-26T06:51:15;0.30;90.20
4406;DHT22;2216;53.806;11.598;2024-02-26T06:53:40;0.40;90.30
4406;DHT22;2216;53.806;11.598;2024-02-26T06:56:06;0.40;90.30
4406;DHT22;2216;53.806;11.598;2024-02-26T06:58:32;0.50;90.40
4406;DHT22;2216;53.806;11.598;2024-02-26T07:00:58;0.50;90.40
4406;DHT22;2216;53.806;11.598;2024-02-26T07:03:24;0.50;90.40
4406;DHT22;2216;53.806;11.598;2024-02-26T07:05:51;0.50;90.40
4406;DHT22;2216;53.806;11.598;2024-02-26T07:08:17;0.50;90.40
4406;DHT22;2216;53.806;11.598;2024-02-26T07:10:43;0.60;90.50
4406;DHT22;2216;53.806;11.598;2024-02-26T07:13:09;0.70;90.50
4406;DHT22;2216;53.806;11.598;2024-02-26T07:15:35;0.60;90.50
4406;DHT22;2216;53.806;11.598;2024-02-26T07:18:01;0.70;90.60
4406;DHT22;2216;53.806;11.598;2024-02-26T07:20:31;0.80;90.60
4406;DHT22;2216;53.806;11.598;2024-02-26T07:22:57;0.80;90.60
4406;DHT22;2216;53.806;11.598;2024-02-26T07:25:23;0.90;90.70
4406;DHT22;2216;53.806;11.598;2024-02-26T07:27:50;1.00;90.70
4406;DHT22;2216;53.806;11.598;2024-02-26T07:30:16;1.00;90.70
4406;DHT22;2216;53.806;11.598;2024-02-26T07:32:43;1.10;90.80
4406;DHT22;2216;53.806;11.598;2024-02-26T07:35:08;1.10;90.80
4406;DHT22;2216;53.806;11.598;2024-02-26T07:37:34;1.20;90.80
4406;DHT22;2216;53.806;11.598;2024-02-26T07:40:00;1.30;90.90
4406;DHT22;2216;53.806;11.598;2024-02-26T07:42:26;1.30;90.90
4406;DHT22;2216;53.806;11.598;2024-02-26T07:44:52;1.40;90.90
4406;DHT22;2216;53.806;11.598;2024-02-26T07:47:19;1.50;90.90
4406;DHT22;2216;53.806;11.598;2024-02-26T07:49:45;1.50;90.90
4406;DHT22;2216;53.806;11.598;2024-02-26T07:52:10;1.60;90.90
4406;DHT22;2216;53.806;11.598;2024-02-26T07:54:36;1.70;90.90
4406;DHT22;2216;53.806;11.598;2024-02-26T07:57:02;1.70;90.90
4406;DHT22;2216;53.806;11.598;2024-02-26T07:59:31;1.80;91.00
4406;DHT22;2216;53.806;11.598;2024-02-26T08:01:57;1.90;91.00
4406;DHT22;2216;53.806;11.598;2024-02-26T08:04:23;1.90;91.00
4406;DHT22;2216;53.806;11.598;2024-02-26T08:06:48;2.00;91.00
4406;DHT22;2216;53.806;11.598;2024-02-26T08:09:14;2.00;91.00
4406;DHT22;2216;53.806;11.598;2024-02-26T08:11:40;2.10;91.10
4406;DHT22;2216;53.806;11.598;2024-02-26T08:14:06;2.20;91.10
4406;DHT22;2216;53.806;11.598;2024-02-26T08:16:32;2.30;91.10
4406;DHT22;2216;53.806;11.598;2024-02-26T08:18:57;2.30;91.10
4406;DHT22;2216;53.806;11.598;2024-02-26T08:21:23;2.40;91.20
4406;DHT22;2216;53.806;11.598;2024-02-26T08:23:49;2.50;91.20
4406;DHT22;2216;53.806;11.598;2024-02-26T08:26:15;2.60;91.30
4406;DHT22;2216;53.806;11.598;2024-02-26T08:28:40;2.70;91.30
4406;DHT22;2216;53.806;11.598;2024-02-26T08:31:06;2.80;91.40
4406;DHT22;2216;53.806;11.598;2024-02-26T08:33:32;2.90;91.50
4406;DHT22;2216;53.806;11.598;2024-02-26T08:36:04;3.00;91.60
4406;DHT22;2216;53.806;11.598;2024-02-26T08:38:30;3.10;91.70
4406;DHT22;2216;53.806;11.598;2024-02-26T08:40:56;3.30;91.80
4406;DHT22;2216;53.806;11.598;2024-02-26T08:43:22;3.40;91.80
4406;DHT22;2216;53.806;11.598;2024-02-26T08:45:47;3.60;91.90
4406;DHT22;2216;53.806;11.598;2024-02-26T08:48:13;3.70;91.90
4406;DHT22;2216;53.806;11.598;2024-02-26T08:50:39;3.90;92.00
4406;DHT22;2216;53.806;11.598;2024-02-26T08:53:05;4.00;92.00
4406;DHT22;2216;53.806;11.598;2024-02-26T08:55:31;4.20;92.10
4406;DHT22;2216;53.806;11.598;2024-02-26T08:57:57;4.30;92.20
4406;DHT22;2216;53.806;11.598;2024-02-26T09:00:23;4.50;92.20
4406;DHT22;2216;53.806;11.598;2024-02-26T09:02:49;4.70;92.30
4406;DHT22;2216;53.806;11.598;2024-02-26T09:05:15;4.80;92.30
4406;DHT22;2216;53.806;11.598;2024-02-26T09:07:41;5.00;92.40
4406;DHT22;2216;53.806;11.598;2024-02-26T09:10:07;5.10;92.40
4406;DHT22;2216;53.806;11.598;2024-02-26T09:12:37;5.30;92.50
4406;DHT22;2216;53.806;11.598;2024-02-26T09:15:03;5.50;92.50
4406;DHT22;2216;53.806;11.598;2024-02-26T09:17:29;5.60;92.50
4406;DHT22;2216;53.806;11.598;2024-02-26T09:19:55;5.70;92.50
4406;DHT22;2216;53.806;11.598;2024-02-26T09:22:21;5.90;92.50
4406;DHT22;2216;53.806;11.598;2024-02-26T09:24:47;6.10;92.40
4406;DHT22;2216;53.806;11.598;2024-02-26T09:27:12;6.20;92.40
4406;DHT22;2216;53.806;11.598;2024-02-26T09:29:38;6.30;92.40
4406;DHT22;2216;53.806;11.598;2024-02-26T09:32:04;6.50;92.40
4406;DHT22;2216;53.806;11.598;2024-02-26T09:34:30;6.50;92.30
4406;DHT22;2216;53.806;11.598;2024-02-26T09:36:56;6.60;92.20
4406;DHT22;2216;53.806;11.598;2024-02-26T09:39:21;6.70;92.10
4406;DHT22;2216;53.806;11.598;2024-02-26T09:41:48;6.80;92.00
4406;DHT22;2216;53.806;11.598;2024-02-26T09:44:19;6.90;92.00
4406;DHT22;2216;53.806;11.598;2024-02-26T09:46:48;6.90;92.00
4406;DHT22;2216;53.806;11.598;2024-02-26T09:49:15;7.00;92.00
4406;DHT22;2216;53.806;11.598;2024-02-26T09:51:42;7.10;92.00
4406;DHT22;2216;53.806;11.598;2024-02-26T09:54:09;7.20;92.00
4406;DHT22;2216;53.806;11.598;2024-02-26T09:56:38;7.30;92.00
4406;DHT22;2216;53.806;11.598;2024-02-26T09:59:13;7.40;92.00
4406;DHT22;2216;53.806;11.598;2024-02-26T10:01:42;7.40;91.90
4406;DHT22;2216;53.806;11.598;2024-02-26T10:04:09;7.50;91.80
4406;DHT22;2216;53.806;11.598;2024-02-26T10:06:36;7.60;91.90
4406;DHT22;2216;53.806;11.598;2024-02-26T10:09:03;7.70;91.90
4406;DHT22;2216;53.806;11.598;2024-02-26T10:11:32;7.70;91.90
4406;DHT22;2216;53.806;11.598;2024-02-26T10:13:58;7.90;92.00
4406;DHT22;2216;53.806;11.598;2024-02-26T10:16:25;7.90;91.90
4406;DHT22;2216;53.806;11.598;2024-02-26T10:18:52;7.90;91.90
4406;DHT22;2216;53.806;11.598;2024-02-26T10:21:21;8.00;91.90
4406;DHT22;2216;53.806;11.598;2024-02-26T10:23:49;8.10;91.90
4406;DHT22;2216;53.806;11.598;2024-02-26T10:26:16;8.10;91.80
4406;DHT22;2216;53.806;11.598;2024-02-26T10:28:43;8.20;91.70
4406;DHT22;2216;53.806;11.598;2024-02-26T10:31:10;8.20;91.70
4406;DHT22;2216;53.806;11.598;2024-02-26T10:33:37;8.20;91.70
4406;DHT22;2216;53.806;11.598;2024-02-26T10:36:05;8.30;92.00
4406;DHT22;2216;53.806;11.598;2024-02-26T10:38:36;8.30;91.60
4406;DHT22;2216;53.806;11.598;2024-02-26T10:41:13;8.30;91.60
4406;DHT22;2216;53.806;11.598;2024-02-26T10:43:39;8.30;91.60
4406;DHT22;2216;53.806;11.598;2024-02-26T10:46:07;8.40;91.70
4406;DHT22;2216;53.806;11.598;2024-02-26T10:48:33;8.40;91.70
4406;DHT22;2216;53.806;11.598;2024-02-26T10:50:59;8.50;91.80
4406;DHT22;2216;53.806;11.598;2024-02-26T10:53:28;8.50;91.80
4406;DHT22;2216;53.806;11.598;2024-02-26T10:55:58;8.60;91.90
4406;DHT22;2216;53.806;11.598;2024-02-26T10:58:29;8.70;91.90
4406;DHT22;2216;53.806;11.598;2024-02-26T11:00:57;8.80;91.90
4406;DHT22;2216;53.806;11.598;2024-02-26T11:03:24;8.80;91.80
4406;DHT22;2216;53.806;11.598;2024-02-26T11:05:51;8.90;91.80
4406;DHT22;2216;53.806;11.598;2024-02-26T11:08:20;8.90;91.70
4406;DHT22;2216;53.806;11.598;2024-02-26T11:10:53;8.90;91.70
4406;DHT22;2216;53.806;11.598;2024-02-26T11:13:19;9.00;91.70
4406;DHT22;2216;53.806;11.598;2024-02-26T11:15:47;9.00;91.60
4406;DHT22;2216;53.806;11.598;2024-02-26T11:18:16;9.10;91.70
4406;DHT22;2216;53.806;11.598;2024-02-26T11:20:42;9.10;91.70
4406;DHT22;2216;53.806;11.598;2024-02-26T11:23:08;9.10;91.70
4406;DHT22;2216;53.806;11.598;2024-02-26T11:25:35;9.20;91.70
4406;DHT22;2216;53.806;11.598;2024-02-26T11:28:05;9.20;91.70
4406;DHT22;2216;53.806;11.598;2024-02-26T11:30:36;9.30;91.80
4406;DHT22;2216;53.806;11.598;2024-02-26T11:33:07;9.30;91.80
4406;DHT22;2216;53.806;11.598;2024-02-26T11:35:35;9.40;91.80
4406;DHT22;2216;53.806;11.598;2024-02-26T11:38:01;9.40;91.80
4406;DHT22;2216;53.806;11.598;2024-02-26T11:40:29;9.50;91.70
4406;DHT22;2216;53.806;11.598;2024-02-26T11:42:57;9.50;91.70
4406;DHT22;2216;53.806;11.598;2024-02-26T11:48:14;9.60;91.70
4406;DHT22;2216;53.806;11.598;2024-02-26T11:50:41;9.60;91.70
4406;DHT22;2216;53.806;11.598;2024-02-26T11:53:28;9.60;91.70
4406;DHT22;2216;53.806;11.598;2024-02-26T11:59:10;9.70;91.70
4406;DHT22;2216;53.806;11.598;2024-02-26T12:01:46;9.80;91.60
4406;DHT22;2216;53.806;11.598;2024-02-26T12:04:26;9.90;91.80
4406;DHT22;2216;53.806;11.598;2024-02-26T12:07:00;10.00;91.90
4406;DHT22;2216;53.806;11.598;2024-02-26T12:09:39;10.10;91.90
4406;DHT22;2216;53.806;11.598;2024-02-26T12:12:11;10.10;91.90
4406;DHT22;2216;53.806;11.598;2024-02-26T12:14:53;10.20;91.80
4406;DHT22;2216;53.806;11.598;2024-02-26T12:17:24;10.20;91.80
4406;DHT22;2216;53.806;11.598;2024-02-26T12:19:51;10.20;91.70
4406;DHT22;2216;53.806;11.598;2024-02-26T12:22:19;10.30;91.60
4406;DHT22;2216;53.806;11.598;2024-02-26T12:24:44;10.30;91.60
4406;DHT22;2216;53.806;11.598;2024-02-26T12:27:11;10.30;91.60
4406;DHT22;2216;53.806;11.598;2024-02-26T12:29:36;10.40;91.50
4406;DHT22;2216;53.806;11.598;2024-02-26T12:32:05;10.30;91.50
4406;DHT22;2216;53.806;11.598;2024-02-26T12:34:31;10.30;91.50
4406;DHT22;2216;53.806;11.598;2024-02-26T12:36:58;10.40;91.50
4406;DHT22;2216;53.806;11.598;2024-02-26T12:39:24;10.40;91.40
4406;DHT22;2216;53.806;11.598;2024-02-26T12:41:49;10.40;91.40
4406;DHT22;2216;53.806;11.598;2024-02-26T12:44:16;10.40;91.40
4406;DHT22;2216;53.806;11.598;2024-02-26T12:46:42;10.40;91.40
4406;DHT22;2216;53.806;11.598;2024-02-26T12:49:08;10.40;91.40
4406;DHT22;2216;53.806;11.598;2024-02-26T12:51:34;10.40;91.40
4406;DHT22;2216;53.806;11.598;2024-02-26T12:54:00;10.40;91.30
4406;DHT22;2216;53.806;11.598;2024-02-26T12:56:27;10.40;91.30
4406;DHT22;2216;53.806;11.598;2024-02-26T12:58:54;10.40;91.20
4406;DHT22;2216;53.806;11.598;2024-02-26T13:01:23;10.40;91.30
4406;DHT22;2216;53.806;11.598;2024-02-26T13:03:50;10.40;91.10
4406;DHT22;2216;53.806;11.598;2024-02-26T13:06:18;10.30;91.10
4406;DHT22;2216;53.806;11.598;2024-02-26T13:08:45;10.40;91.20
4406;DHT22;2216;53.806;11.598;2024-02-26T13:11:12;10.40;91.20
4406;DHT22;2216;53.806;11.598;2024-02-26T13:13:38;10.40;91.30
4406;DHT22;2216;53.806;11.598;2024-02-26T13:16:06;10.40;91.30
4406;DHT22;2216;53.806;11.598;2024-02-26T13:18:34;10.40;91.30
4406;DHT22;2216;53.806;11.598;2024-02-26T13:21:07;10.40;91.30
4406;DHT22;2216;53.806;11.598;2024-02-26T13:23:39;10.40;91.30
4406;DHT22;2216;53.806;11.598;2024-02-26T13:26:05;10.40;91.30
4406;DHT22;2216;53.806;11.598;2024-02-26T13:28:31;10.50;91.10
4406;DHT22;2216;53.806;11.598;2024-02-26T13:30:58;10.50;91.20
4406;DHT22;2216;53.806;11.598;2024-02-26T13:33:29;10.50;91.20
4406;DHT22;2216;53.806;11.598;2024-02-26T13:35:56;10.50;91.30
4406;DHT22;2216;53.806;11.598;2024-02-26T13:38:24;10.50;91.70
4406;DHT22;2216;53.806;11.598;2024-02-26T13:40:50;10.60;91.20
4406;DHT22;2216;53.806;11.598;2024-02-26T13:43:16;10.60;91.20
4406;DHT22;2216;53.806;11.598;2024-02-26T13:45:43;10.60;91.20
4406;DHT22;2216;53.806;11.598;2024-02-26T13:48:10;10.60;91.00
4406;DHT22;2216;53.806;11.598;2024-02-26T13:50:41;10.70;91.00
4406;DHT22;2216;53.806;11.598;2024-02-26T13:53:08;10.70;91.10
4406;DHT22;2216;53.806;11.598;2024-02-26T13:55:34;10.70;91.10
4406;DHT22;2216;53.806;11.598;2024-02-26T13:58:01;10.70;91.10
4406;DHT22;2216;53.806;11.598;2024-02-26T14:00:28;10.70;91.20
4406;DHT22;2216;53.806;11.598;2024-02-26T14:02:58;10.70;91.00
4406;DHT22;2216;53.806;11.598;2024-02-26T14:05:24;10.70;91.00
4406;DHT22;2216;53.806;11.598;2024-02-26T14:07:50;10.70;90.90
4406;DHT22;2216;53.806;11.598;2024-02-26T14:10:15;10.70;90.90
4406;DHT22;2216;53.806;11.598;2024-02-26T14:12:41;10.60;91.00
4406;DHT22;2216;53.806;11.598;2024-02-26T14:15:08;10.70;90.90
4406;DHT22;2216;53.806;11.598;2024-02-26T14:17:35;10.60;90.60
4406;DHT22;2216;53.806;11.598;2024-02-26T14:20:01;10.60;90.50
4406;DHT22;2216;53.806;11.598;2024-02-26T14:22:28;10.50;90.60
4406;DHT22;2216;53.806;11.598;2024-02-26T14:24:56;10.50;90.60
4406;DHT22;2216;53.806;11.598;2024-02-26T14:27:22;10.50;90.30
4406;DHT22;2216;53.806;11.598;2024-02-26T14:29:49;10.40;90.30
4406;DHT22;2216;53.806;11.598;2024-02-26T14:32:14;10.40;90.30
4406;DHT22;2216;53.806;11.598;2024-02-26T14:34:40;10.30;90.10
4406;DHT22;2216;53.806;11.598;2024-02-26T14:37:06;10.30;90.30
4406;DHT22;2216;53.806;11.598;2024-02-26T14:39:33;10.20;90.50
4406;DHT22;2216;53.806;11.598;2024-02-26T14:41:59;10.20;90.40
4406;DHT22;2216;53.806;11.598;2024-02-26T14:44:26;10.10;90.40
4406;DHT22;2216;53.806;11.598;2024-02-26T14:46:53;10.10;90.50
4406;DHT22;2216;53.806;11.598;2024-02-26T14:49:19;10.10;90.50
4406;DHT22;2216;53.806;11.598;2024-02-26T14:51:45;10.00;90.50
4406;DHT22;2216;53.806;11.598;2024-02-26T14:54:11;10.00;90.50
4406;DHT22;2216;53.806;11.598;2024-02-26T14:56:38;10.00;90.50
4406;DHT22;2216;53.806;11.598;2024-02-26T14:59:03;9.90;90.40
4406;DHT22;2216;53.806;11.598;2024-02-26T15:01:29;9.90;90.50
4406;DHT22;2216;53.806;11.598;2024-02-26T15:03:55;9.90;90.50
4406;DHT22;2216;53.806;11.598;2024-02-26T15:06:22;9.80;90.50
4406;DHT22;2216;53.806;11.598;2024-02-26T15:08:48;9.80;90.50
4406;DHT22;2216;53.806;11.598;2024-02-26T15:11:14;9.80;90.60
4406;DHT22;2216;53.806;11.598;2024-02-26T15:13:40;9.80;90.70
4406;DHT22;2216;53.806;11.598;2024-02-26T15:16:06;9.70;90.70
4406;DHT22;2216;53.806;11.598;2024-02-26T15:18:32;9.70;90.80
4406;DHT22;2216;53.806;11.598;2024-02-26T15:20:58;9.80;90.80
4406;DHT22;2216;53.806;11.598;2024-02-26T15:23:24;9.70;90.80
4406;DHT22;2216;53.806;11.598;2024-02-26T15:25:50;9.70;90.80
4406;DHT22;2216;53.806;11.598;2024-02-26T15:28:16;9.70;90.90
4406;DHT22;2216;53.806;11.598;2024-02-26T15:30:42;9.70;90.90
4406;DHT22;2216;53.806;11.598;2024-02-26T15:33:07;9.70;90.80
4406;DHT22;2216;53.806;11.598;2024-02-26T15:35:34;9.60;90.60
4406;DHT22;2216;53.806;11.598;2024-02-26T15:38:00;9.60;90.60
4406;DHT22;2216;53.806;11.598;2024-02-26T15:40:26;9.60;90.50
4406;DHT22;2216;53.806;11.598;2024-02-26T15:42:52;9.50;90.40
4406;DHT22;2216;53.806;11.598;2024-02-26T15:45:18;9.50;90.50
4406;DHT22;2216;53.806;11.598;2024-02-26T15:47:44;9.50;90.60
4406;DHT22;2216;53.806;11.598;2024-02-26T15:50:10;9.50;90.40
4406;DHT22;2216;53.806;11.598;2024-02-26T15:52:37;9.40;90.50
4406;DHT22;2216;53.806;11.598;2024-02-26T15:55:04;9.40;90.40
4406;DHT22;2216;53.806;11.598;2024-02-26T15:57:31;9.30;90.40
4406;DHT22;2216;53.806;11.598;2024-02-26T15:59:56;9.30;90.40
4406;DHT22;2216;53.806;11.598;2024-02-26T16:02:26;9.20;90.40